Flight Track Log - Related Links

Times and Time Zones

All times are in EDT time to prevent confusion due to time zone crossing. See the WWW336 flight status page for this flight to view local times or setup timezone preferences in your user account.

Time Position Orientation Groundspeed Altitude Reporting Facility
EDT Latitude Longitude Course Direction KTS MPH feet Rate Location/Type
Thu 09:05:41 PM 36.0756 -115.1364 92° East 139 160 3,400  Level Los Angeles Center
Thu 09:06:05 PM 36.0747 -115.1128 92° East 168 193 4,100 3,165 Climbing Los Angeles Center
Thu 09:07:12 PM 36.0772 -115.0347 88° East 204 235 8,200 3,224 Climbing Los Angeles Center
Thu 09:08:19 PM 36.1108 -114.9819 52° Northeast 249 287 11,300 2,651 Climbing Los Angeles Center
Thu 09:09:21 PM 36.1567 -115.0647 304° West 306 352 13,900 1,306 Climbing Los Angeles Center
Thu 09:10:23 PM 36.1839 -115.1800 286° West 342 394 14,000 48 Climbing Los Angeles Center
Thu 09:11:25 PM 36.2217 -115.3164 289° West 347 399 14,000  Level Los Angeles Center
Thu 09:12:27 PM 36.2519 -115.4308 288° West 349 402 14,000 1,258 Level Los Angeles Center
Thu 09:13:29 PM 36.2931 -115.5394 295° West 350 403 16,600 2,855 Climbing Los Angeles Center
Thu 09:14:31 PM 36.3600 -115.6581 305° West 381 438 19,900 1,645 Climbing Los Angeles Center
Thu 09:15:33 PM 36.4225 -115.7683 305° West 388 447 20,000 48 Climbing Los Angeles Center
Thu 09:16:35 PM 36.4861 -115.8819 305° West 394 453 20,000  Level Los Angeles Center
Thu 09:17:36 PM 36.5431 -115.9847 305° West 400 460 20,000  Level Los Angeles Center
Thu 09:18:38 PM 36.5994 -116.1342 295° West 402 463 20,000  Level Los Angeles Center
Thu 09:19:40 PM 36.6358 -116.2658 289° West 402 463 20,000  Level Los Angeles Center
Thu 09:20:42 PM 36.6725 -116.3964 289° West 400 460 20,000  Level Los Angeles Center
Thu 09:21:44 PM 36.7253 -116.5169 299° West 398 458 20,000  Level Los Angeles Center
Thu 09:22:46 PM 36.7881 -116.6311 304° West 399 459 20,000  Level Los Angeles Center
Thu 09:23:48 PM 36.8719 -116.7214 319° Northwest 402 463 20,000  Level Los Angeles Center
Thu 09:24:50 PM 36.9636 -116.7975 326° Northwest 397 457 20,000  Level Los Angeles Center
Thu 09:25:52 PM 37.0739 -116.8903 326° Northwest 397 457 20,000  Level Los Angeles Center
Thu 09:26:54 PM 37.1678 -116.9650 328° Northwest 400 460 20,000  Level Los Angeles Center
Thu 09:27:55 PM 37.2611 -117.0392 328° Northwest 396 456 20,000  Level Los Angeles Center
Thu 09:28:57 PM 37.3508 -117.1169 325° Northwest 393 452 20,000  Level Los Angeles Center
Thu 09:29:59 PM 37.4372 -117.2036 321° Northwest 394 453 20,000  Level Los Angeles Center
Thu 09:31:01 PM 37.5386 -117.2439 343° North 401 461 20,000 -968 Level Los Angeles Center
Thu 09:32:03 PM 37.6467 -117.2281 North 394 453 18,000 -2,878 Descending Los Angeles Center
Thu 09:33:04 PM 37.7708 -117.2111 North 379 436 14,100 -3,122 Descending Los Angeles Center
Thu 09:34:06 PM 37.8714 -117.1975 North 369 425 11,600 -1,645 Descending Los Angeles Center
Thu 09:35:08 PM 37.9517 -117.1683 16° North 318 366 10,700 -677 Descending Los Angeles Center
Thu 09:36:10 PM 37.9583 -117.0806 84° East 266 306 10,200 -488 Descending Los Angeles Center
Thu 09:37:11 PM 37.9525 -117.0033 95° East 239 275 9,700 -634 Descending Los Angeles Center
Thu 09:38:13 PM 37.9469 -116.9344 96° East 217 250 8,900 -919 Descending Los Angeles Center
Thu 09:39:15 PM 37.9231 -116.8678 114° Southeast 202 232 7,800 -871 Descending Los Angeles Center
Thu 09:40:17 PM 37.8950 -116.8308 134° Southeast 165 190 7,100 -683 Descending Los Angeles Center
Thu 09:41:18 PM 37.8603 -116.8139 159° South 145 167 6,400 -683 Descending Los Angeles Center
Thu 09:42:20 PM 37.8261 -116.7969 159° South 136 157 5,700 -677 Descending Los Angeles Center

Login

Don't have an account? Register now (free) for customized features, flight alerts, and more!